Time;durP1;ratioP1;P1;durP2;ratioP2;P2;SDS_P1;SDS_P2;PMS_P1;PMS_P2;Temp;Humidity;BMP_temperature;BMP_pressure;BME280_temperature;BME280_humidity;BME280_pressure;Samples;Min_cycle;Max_cycle;Signal;HPM_P1;HPM_P2
2023/07/11 00:00:06;;;;;;;4.25;1.52;;;18.40;90.10;;;;;;4874879;28;92897;-73
2023/07/11 00:02:32;;;;;;;7.35;2.00;;;18.30;90.10;;;;;;4876721;28;91980;-73
2023/07/11 00:05:01;;;;;;;3.58;1.63;;;18.30;90.20;;;;;;4874662;28;92706;-73
2023/07/11 00:07:27;;;;;;;3.58;1.30;;;18.30;90.20;;;;;;4876689;28;93539;-73
2023/07/11 00:09:53;;;;;;;5.47;1.95;;;18.20;90.20;;;;;;4875733;28;93446;-73
2023/07/11 00:12:19;;;;;;;6.53;1.77;;;18.20;90.40;;;;;;4876779;28;92658;-73
2023/07/11 00:14:45;;;;;;;5.75;1.73;;;18.20;90.30;;;;;;4876143;28;93316;-72
2023/07/11 00:17:11;;;;;;;4.65;1.85;;;18.20;90.30;;;;;;4876705;28;93099;-73
2023/07/11 00:20:11;;;;;;;4.95;2.13;;;18.10;90.20;;;;;;4875227;28;92558;-73
2023/07/11 00:22:37;;;;;;;5.03;2.20;;;18.10;90.30;;;;;;4843977;28;93846;-73
2023/07/11 00:25:04;;;;;;;3.30;2.05;;;18.10;90.40;;;;;;4878104;28;93921;-73
2023/07/11 00:27:30;;;;;;;3.33;1.95;;;18.00;90.60;;;;;;4865966;28;95696;-72
2023/07/11 00:29:56;;;;;;;4.57;2.13;;;18.00;90.50;;;;;;4875931;28;92831;-73
2023/07/11 00:32:22;;;;;;;4.45;2.08;;;17.90;90.50;;;;;;4876070;28;92775;-73
2023/07/11 00:34:48;;;;;;;4.07;2.28;;;17.90;90.50;;;;;;4875119;28;94135;-73
2023/07/11 00:37:14;;;;;;;5.72;2.42;;;17.90;90.60;;;;;;4875484;28;94001;-73
2023/07/11 00:39:40;;;;;;;4.90;2.50;;;17.90;90.60;;;;;;4874678;28;92528;-73
2023/07/11 00:42:07;;;;;;;4.53;2.10;;;17.80;90.40;;;;;;4874529;28;92875;-73
2023/07/11 00:44:57;;;;;;;3.70;1.88;;;17.80;90.40;;;;;;4874473;28;93391;-73
2023/07/11 00:47:25;;;;;;;8.55;2.63;;;17.90;90.30;;;;;;4876005;28;92922;-73
2023/07/11 00:50:10;;;;;;;5.88;2.50;;;17.80;90.30;;;;;;4875743;28;92995;-73
2023/07/11 00:52:36;;;;;;;6.43;2.45;;;17.80;90.40;;;;;;4876499;28;91988;-72
2023/07/11 00:55:08;;;;;;;6.00;2.13;;;17.80;90.40;;;;;;4876955;28;93385;-73
2023/07/11 00:57:37;;;;;;;6.97;2.25;;;17.80;90.20;;;;;;4876077;28;93336;-73
2023/07/11 01:00:04;;;;;;;4.30;2.53;;;17.80;90.30;;;;;;4876481;28;93592;-74
2023/07/11 01:02:31;;;;;;;7.70;2.63;;;17.80;90.50;;;;;;4873845;28;93056;-73
2023/07/11 01:04:59;;;;;;;6.95;2.88;;;17.70;90.40;;;;;;4873764;28;94444;-72
2023/07/11 01:07:28;;;;;;;3.22;2.50;;;17.70;90.30;;;;;;4876482;28;93940;-73
2023/07/11 01:09:54;;;;;;;4.75;2.92;;;17.70;90.40;;;;;;4873775;28;92313;-72
2023/07/11 01:12:21;;;;;;;7.28;2.70;;;17.70;90.40;;;;;;4873642;28;92773;-73
2023/07/11 01:14:49;;;;;;;7.00;3.00;;;17.70;90.30;;;;;;4875387;28;93489;-73
2023/07/11 01:17:21;;;;;;;5.45;2.97;;;17.60;90.20;;;;;;4875402;28;93097;-73
2023/07/11 01:19:46;;;;;;;6.72;3.28;;;17.60;90.30;;;;;;4875227;28;92743;-73
2023/07/11 01:22:12;;;;;;;4.57;2.60;;;17.50;90.20;;;;;;4875992;28;93026;-73
2023/07/11 01:24:37;;;;;;;5.22;3.17;;;17.60;90.20;;;;;;4875147;28;94126;-73
2023/07/11 01:27:03;;;;;;;5.75;3.22;;;17.50;90.10;;;;;;4857524;28;97449;-73
2023/07/11 01:29:29;;;;;;;5.05;2.38;;;17.50;90.10;;;;;;4875468;28;92643;-73
2023/07/11 01:31:55;;;;;;;5.80;3.08;;;17.50;89.70;;;;;;4874524;28;92729;-73
2023/07/11 01:34:20;;;;;;;4.75;2.38;;;17.50;89.70;;;;;;4874343;28;92932;-73
2023/07/11 01:36:46;;;;;;;4.47;2.25;;;17.60;90.00;;;;;;4874009;28;92797;-72
2023/07/11 01:39:12;;;;;;;7.22;2.53;;;17.50;89.30;;;;;;4874084;28;92991;-72
2023/07/11 01:41:37;;;;;;;6.60;2.90;;;17.50;89.50;;;;;;4874792;28;92041;-73
2023/07/11 01:44:03;;;;;;;4.07;2.35;;;17.60;89.90;;;;;;4874084;28;94054;-73
2023/07/11 01:46:29;;;;;;;6.22;2.85;;;17.60;89.50;;;;;;4874785;28;93407;-73
2023/07/11 01:48:54;;;;;;;7.43;2.60;;;17.60;89.80;;;;;;4873247;28;93722;-73
2023/07/11 01:51:20;;;;;;;4.60;2.92;;;17.60;89.80;;;;;;4874276;28;93063;-73
2023/07/11 01:53:46;;;;;;;7.10;2.78;;;17.60;89.90;;;;;;4873795;28;94012;-73
2023/07/11 01:56:11;;;;;;;5.93;2.83;;;17.50;90.00;;;;;;4874799;28;93363;-73
2023/07/11 01:58:38;;;;;;;7.22;3.00;;;17.50;90.00;;;;;;4875715;28;92569;-73
2023/07/11 02:01:03;;;;;;;3.90;2.60;;;17.50;90.20;;;;;;4875280;28;92245;-73
2023/07/11 02:03:29;;;;;;;6.05;2.90;;;17.50;90.30;;;;;;4874165;28;93965;-73
2023/07/11 02:05:55;;;;;;;4.88;2.45;;;17.50;90.40;;;;;;4872786;28;93516;-73
2023/07/11 02:08:21;;;;;;;4.80;2.67;;;17.40;90.40;;;;;;4875413;28;93090;-73
2023/07/11 02:10:47;;;;;;;9.00;3.30;;;17.40;90.50;;;;;;4874100;28;92896;-73
2023/07/11 02:13:12;;;;;;;9.77;3.30;;;17.40;90.60;;;;;;4874089;28;93576;-73
2023/07/11 02:15:38;;;;;;;8.00;2.38;;;17.30;90.70;;;;;;4872887;28;95957;-73
2023/07/11 02:18:03;;;;;;;8.63;2.75;;;17.30;90.80;;;;;;4874291;28;92929;-73
2023/07/11 02:20:29;;;;;;;4.55;2.90;;;17.30;90.90;;;;;;4874421;28;93083;-73
2023/07/11 02:22:55;;;;;;;5.70;2.78;;;17.20;91.10;;;;;;4873995;28;100655;-73
2023/07/11 02:25:20;;;;;;;5.53;2.92;;;17.20;91.10;;;;;;4875078;28;93382;-73
2023/07/11 02:27:46;;;;;;;6.40;2.88;;;17.10;91.20;;;;;;4874889;28;92838;-73
2023/07/11 02:30:12;;;;;;;5.32;3.00;;;17.10;91.10;;;;;;4874426;28;92009;-73
2023/07/11 02:32:39;;;;;;;7.63;3.42;;;17.10;90.90;;;;;;4871544;28;95035;-73
2023/07/11 02:35:05;;;;;;;5.95;2.85;;;17.00;91.00;;;;;;4873193;28;92821;-73
2023/07/11 02:37:31;;;;;;;6.40;2.80;;;17.00;90.90;;;;;;4875693;28;93804;-74
2023/07/11 02:39:56;;;;;;;5.82;2.80;;;17.00;90.70;;;;;;4873329;28;92850;-73
2023/07/11 02:42:22;;;;;;;6.10;2.97;;;17.10;90.80;;;;;;4873572;28;92718;-73
2023/07/11 02:44:47;;;;;;;9.00;2.90;;;17.10;90.70;;;;;;4872329;28;92829;-73
2023/07/11 02:47:13;;;;;;;3.67;2.85;;;17.00;90.70;;;;;;4872534;28;92644;-74
2023/07/11 02:49:40;;;;;;;5.35;2.60;;;17.10;90.60;;;;;;4873090;28;92805;-73
2023/07/11 02:52:07;;;;;;;4.35;2.55;;;17.10;90.50;;;;;;4872757;28;93767;-75
2023/07/11 02:54:33;;;;;;;7.05;2.95;;;17.10;90.50;;;;;;4872319;28;94172;-74
2023/07/11 02:56:59;;;;;;;6.47;2.30;;;17.10;90.60;;;;;;4872405;28;92860;-74
2023/07/11 02:59:24;;;;;;;5.05;2.42;;;17.10;90.30;;;;;;4872272;28;92787;-74
2023/07/11 03:01:50;;;;;;;5.72;2.47;;;17.10;90.10;;;;;;4873109;28;93589;-74
2023/07/11 03:04:16;;;;;;;6.85;2.53;;;17.10;90.30;;;;;;4874775;28;94683;-74
2023/07/11 03:06:41;;;;;;;6.05;3.05;;;17.10;90.30;;;;;;4872534;28;92907;-74
2023/07/11 03:09:07;;;;;;;7.63;3.25;;;17.10;90.40;;;;;;4872980;28;93168;-74
2023/07/11 03:11:32;;;;;;;6.50;2.95;;;17.10;90.20;;;;;;4872729;28;93341;-74
2023/07/11 03:13:58;;;;;;;9.60;2.67;;;17.10;90.30;;;;;;4872466;28;93597;-74
2023/07/11 03:16:24;;;;;;;4.03;2.38;;;17.10;90.30;;;;;;4872944;28;93195;-74
2023/07/11 03:18:49;;;;;;;7.55;2.95;;;17.10;90.40;;;;;;4872758;28;91819;-74
2023/07/11 03:21:15;;;;;;;8.48;2.72;;;17.10;90.10;;;;;;4872229;28;93924;-74
2023/07/11 03:23:40;;;;;;;7.70;3.15;;;17.10;90.20;;;;;;4873155;28;92819;-74
2023/07/11 03:26:06;;;;;;;5.10;2.60;;;17.00;90.50;;;;;;4873829;28;93823;-74
2023/07/11 03:28:32;;;;;;;16.38;3.92;;;17.00;90.30;;;;;;4873183;28;92695;-74
2023/07/11 03:30:58;;;;;;;11.13;2.92;;;17.00;90.20;;;;;;4871306;28;93681;-74
2023/07/11 03:33:24;;;;;;;7.57;2.60;;;17.00;90.30;;;;;;4872580;28;93425;-74
2023/07/11 03:35:51;;;;;;;7.20;2.60;;;17.00;90.30;;;;;;4871033;28;93900;-74
2023/07/11 03:38:18;;;;;;;6.22;2.60;;;17.00;90.20;;;;;;4872546;28;92930;-74
2023/07/11 03:40:44;;;;;;;7.97;2.97;;;17.00;90.40;;;;;;4872765;28;92855;-74
2023/07/11 03:43:09;;;;;;;8.35;3.33;;;17.00;90.20;;;;;;4873234;28;93336;-74
2023/07/11 03:45:35;;;;;;;8.65;2.97;;;17.00;90.30;;;;;;4872695;28;92806;-74
2023/07/11 03:48:01;;;;;;;7.10;3.65;;;16.90;90.20;;;;;;4871586;28;92366;-74
2023/07/11 03:50:26;;;;;;;9.88;3.03;;;17.00;90.20;;;;;;4854577;28;95949;-74
2023/07/11 03:52:52;;;;;;;6.68;3.35;;;16.90;90.10;;;;;;4873309;28;94998;-74
2023/07/11 03:55:17;;;;;;;8.35;3.00;;;16.90;90.10;;;;;;4876871;28;92510;-74
2023/07/11 03:57:43;;;;;;;5.05;2.90;;;16.90;90.20;;;;;;4877339;28;92561;-75
2023/07/11 04:00:09;;;;;;;8.40;3.17;;;16.90;90.20;;;;;;4877289;28;93987;-74
2023/07/11 04:02:35;;;;;;;6.90;2.92;;;16.90;90.30;;;;;;4876335;28;94294;-74
2023/07/11 04:05:01;;;;;;;9.75;3.15;;;16.90;90.50;;;;;;4876009;28;92494;-75
2023/07/11 04:07:26;;;;;;;7.65;3.20;;;16.90;90.40;;;;;;4878110;28;91623;-75
2023/07/11 04:09:52;;;;;;;6.22;2.85;;;16.90;90.40;;;;;;4877004;28;93154;-74
2023/07/11 04:12:18;;;;;;;11.88;3.40;;;17.00;90.50;;;;;;4875614;28;93020;-73
2023/07/11 04:14:43;;;;;;;7.07;2.90;;;16.90;90.50;;;;;;4875746;28;93962;-74
2023/07/11 04:17:09;;;;;;;4.50;2.60;;;17.00;90.40;;;;;;4875961;28;92989;-74
2023/07/11 04:19:34;;;;;;;6.93;3.50;;;17.00;90.40;;;;;;4876896;28;94036;-75
2023/07/11 04:22:00;;;;;;;15.93;3.58;;;17.00;90.20;;;;;;4875748;28;97504;-74
2023/07/11 04:24:25;;;;;;;8.23;2.50;;;17.00;90.50;;;;;;4877080;28;92906;-74
2023/07/11 04:26:51;;;;;;;4.45;2.70;;;17.00;90.30;;;;;;4877047;28;92537;-74
2023/07/11 04:29:16;;;;;;;6.78;2.90;;;17.10;90.10;;;;;;4876127;28;93293;-74
2023/07/11 04:31:42;;;;;;;5.95;2.53;;;17.10;90.20;;;;;;4876337;28;91833;-74
2023/07/11 04:34:08;;;;;;;5.80;2.50;;;17.10;90.00;;;;;;4875374;28;92712;-74
2023/07/11 04:36:33;;;;;;;6.10;2.65;;;17.10;90.10;;;;;;4874999;28;92825;-74
2023/07/11 04:39:00;;;;;;;8.73;2.78;;;17.20;90.10;;;;;;4874320;28;94080;-74
2023/07/11 04:41:25;;;;;;;6.97;2.65;;;17.20;89.70;;;;;;4874605;28;93641;-74
2023/07/11 04:43:51;;;;;;;13.93;2.65;;;17.30;90.00;;;;;;4876086;28;93124;-75
2023/07/11 04:46:16;;;;;;;9.02;2.70;;;17.40;89.40;;;;;;4877234;28;92215;-75
2023/07/11 04:48:45;;;;;;;5.00;2.08;;;17.40;89.20;;;;;;4876034;28;93764;-74
2023/07/11 04:51:11;;;;;;;5.28;2.63;;;17.50;89.00;;;;;;4875224;28;93367;-75
2023/07/11 04:53:39;;;;;;;8.50;2.50;;;17.50;88.90;;;;;;4876546;28;93063;-75
2023/07/11 04:56:07;;;;;;;4.32;2.28;;;17.60;89.00;;;;;;4874672;28;91791;-74
2023/07/11 04:58:34;;;;;;;8.90;1.80;;;17.70;88.40;;;;;;4876613;28;94111;-75
2023/07/11 05:01:06;;;;;;;6.57;2.30;;;17.80;88.60;;;;;;4874065;28;103323;-74
2023/07/11 05:03:31;;;;;;;6.10;2.67;;;17.90;87.70;;;;;;4875929;28;93490;-74
2023/07/11 05:05:58;;;;;;;4.88;2.20;;;18.00;87.60;;;;;;4875786;28;93134;-74
2023/07/11 05:08:24;;;;;;;5.57;1.90;;;18.10;88.00;;;;;;4874727;28;93680;-74
2023/07/11 05:10:53;;;;;;;11.98;2.67;;;18.20;87.40;;;;;;4875023;28;92985;-74
2023/07/11 05:13:19;;;;;;;6.53;2.35;;;18.30;86.70;;;;;;4876361;28;92876;-75
2023/07/11 05:15:45;;;;;;;3.60;1.65;;;18.40;85.90;;;;;;4877264;28;92599;-75
2023/07/11 05:18:11;;;;;;;4.97;1.80;;;18.50;85.90;;;;;;4876544;28;93380;-75
2023/07/11 05:20:37;;;;;;;9.40;2.38;;;18.60;85.70;;;;;;4875478;28;93671;-74
2023/07/11 05:23:02;;;;;;;6.97;2.10;;;18.70;84.90;;;;;;4875344;28;92578;-75
2023/07/11 05:25:28;;;;;;;7.80;1.95;;;18.80;85.40;;;;;;4874686;28;92749;-74
2023/07/11 05:27:53;;;;;;;4.95;2.20;;;18.90;85.50;;;;;;4873304;28;93923;-74
2023/07/11 05:30:19;;;;;;;6.95;1.55;;;19.00;84.10;;;;;;4873041;28;93091;-74
2023/07/11 05:32:44;;;;;;;11.48;1.70;;;19.10;84.40;;;;;;4873392;28;92798;-74
2023/07/11 05:35:10;;;;;;;6.90;1.90;;;19.20;84.70;;;;;;4875139;28;92534;-74
2023/07/11 05:37:36;;;;;;;9.10;2.08;;;19.30;84.10;;;;;;4874354;28;94394;-74
2023/07/11 05:40:01;;;;;;;4.90;1.90;;;19.40;83.60;;;;;;4874166;28;92880;-74
2023/07/11 05:42:27;;;;;;;3.58;1.60;;;19.50;83.90;;;;;;4873341;28;92661;-75
2023/07/11 05:44:54;;;;;;;3.83;1.80;;;19.60;83.60;;;;;;4872816;28;91819;-76
2023/07/11 05:47:20;;;;;;;6.18;2.42;;;19.70;82.90;;;;;;4872651;28;93593;-76
2023/07/11 05:49:46;;;;;;;3.88;1.42;;;19.80;83.00;;;;;;4874013;28;92578;-76
2023/07/11 05:52:12;;;;;;;5.45;2.50;;;19.90;82.60;;;;;;4875244;28;93195;-76
2023/07/11 05:54:37;;;;;;;6.28;1.70;;;20.10;83.10;;;;;;4876924;28;93022;-77
2023/07/11 05:57:03;;;;;;;5.93;1.75;;;20.10;82.00;;;;;;4875410;28;92899;-76
2023/07/11 05:59:29;;;;;;;3.97;1.98;;;20.20;82.20;;;;;;4875575;28;95419;-76
2023/07/11 06:01:55;;;;;;;4.45;1.63;;;20.30;82.60;;;;;;4876072;28;92633;-76
2023/07/11 06:04:20;;;;;;;4.53;2.08;;;20.40;82.60;;;;;;4875470;28;92765;-76
2023/07/11 06:06:46;;;;;;;6.10;1.85;;;20.50;82.40;;;;;;4858317;28;96838;-76
2023/07/11 06:09:15;;;;;;;5.43;2.08;;;20.70;81.60;;;;;;4874145;28;95993;-76
2023/07/11 06:11:41;;;;;;;8.63;2.10;;;20.80;81.00;;;;;;4877400;28;92634;-77
2023/07/11 06:14:07;;;;;;;9.45;1.92;;;20.90;81.00;;;;;;4876323;28;93069;-77
2023/07/11 06:16:33;;;;;;;7.68;1.90;;;21.00;80.10;;;;;;4876321;28;94711;-77
2023/07/11 06:18:59;;;;;;;10.05;1.95;;;21.10;79.60;;;;;;4875590;28;93517;-76
2023/07/11 06:21:25;;;;;;;6.43;1.98;;;21.30;79.60;;;;;;4876552;28;93058;-76
2023/07/11 06:23:50;;;;;;;3.60;1.63;;;21.40;79.20;;;;;;4875818;28;92609;-76
2023/07/11 06:26:16;;;;;;;5.28;2.05;;;21.50;78.60;;;;;;4875607;28;93607;-76
2023/07/11 06:28:42;;;;;;;9.20;1.92;;;21.60;77.70;;;;;;4874841;28;92497;-76
2023/07/11 06:31:11;;;;;;;6.07;1.65;;;21.70;78.30;;;;;;4877197;28;92555;-76
2023/07/11 06:33:36;;;;;;;6.20;1.88;;;21.80;78.50;;;;;;4874684;28;92366;-76
2023/07/11 06:36:04;;;;;;;3.72;1.73;;;22.00;77.90;;;;;;4875458;28;93953;-76
2023/07/11 06:38:29;;;;;;;9.68;2.35;;;22.10;77.10;;;;;;4874689;28;94404;-76
2023/07/11 06:40:56;;;;;;;7.55;1.98;;;22.20;76.80;;;;;;4875442;28;94118;-76
2023/07/11 06:43:24;;;;;;;7.53;2.00;;;22.30;76.00;;;;;;4875577;28;92693;-76
2023/07/11 06:45:53;;;;;;;8.05;1.95;;;22.40;75.60;;;;;;4874571;28;96996;-77
2023/07/11 06:48:20;;;;;;;8.05;1.83;;;22.60;74.90;;;;;;4857958;28;96539;-77
2023/07/11 06:50:57;;;;;;;4.50;1.80;;;22.70;75.20;;;;;;4859069;28;92784;-77
2023/07/11 06:53:28;;;;;;;9.05;1.75;;;22.80;74.40;;;;;;4856655;28;92884;-76
2023/07/11 06:55:55;;;;;;;6.30;2.10;;;23.00;73.10;;;;;;4875139;28;92653;-77
2023/07/11 06:58:21;;;;;;;4.70;1.83;;;23.20;71.90;;;;;;4858435;28;96483;-77
2023/07/11 07:01:02;;;;;;;5.15;1.85;;;23.20;72.90;;;;;;4867676;28;92341;-77
2023/07/11 07:03:28;;;;;;;5.60;1.83;;;23.40;71.70;;;;;;4875792;28;92889;-76
2023/07/11 07:06:04;;;;;;;4.75;1.77;;;23.60;71.50;;;;;;4873392;28;97542;-77
2023/07/11 07:08:29;;;;;;;10.00;2.17;;;23.70;70.80;;;;;;4873875;28;93867;-76
2023/07/11 07:10:55;;;;;;;5.70;1.75;;;23.90;69.50;;;;;;4853050;28;92785;-76
2023/07/11 07:13:22;;;;;;;8.35;1.70;;;24.00;68.50;;;;;;4869416;28;92642;-76
2023/07/11 07:15:49;;;;;;;6.95;1.70;;;24.10;66.20;;;;;;4869336;28;92689;-76
2023/07/11 07:18:16;;;;;;;5.85;2.08;;;24.20;67.30;;;;;;4871326;28;93148;-77
2023/07/11 07:20:44;;;;;;;8.30;1.92;;;24.30;67.10;;;;;;4868120;28;92169;-76
2023/07/11 07:23:09;;;;;;;6.32;1.42;;;24.40;66.00;;;;;;4869291;28;91866;-76
2023/07/11 07:25:36;;;;;;;9.70;2.00;;;24.50;64.80;;;;;;4872731;28;93666;-76
2023/07/11 07:28:02;;;;;;;5.88;1.45;;;24.60;64.60;;;;;;4870437;28;92894;-76
2023/07/11 07:30:27;;;;;;;8.95;1.40;;;24.60;64.90;;;;;;4872641;28;93767;-75
2023/07/11 07:32:53;;;;;;;9.65;1.80;;;24.70;64.90;;;;;;4870086;28;92909;-75
2023/07/11 07:35:18;;;;;;;5.93;1.60;;;24.80;64.30;;;;;;4867304;28;93576;-75
2023/07/11 07:37:44;;;;;;;5.80;1.60;;;24.90;66.10;;;;;;4872727;28;92998;-75
2023/07/11 07:40:10;;;;;;;5.65;1.65;;;25.10;64.30;;;;;;4876508;28;92620;-75
2023/07/11 07:42:35;;;;;;;3.60;1.77;;;25.20;65.30;;;;;;4873936;28;92845;-75
2023/07/11 07:45:01;;;;;;;6.03;1.38;;;25.30;63.50;;;;;;4872861;28;93142;-75
2023/07/11 07:47:26;;;;;;;6.25;1.50;;;25.50;63.20;;;;;;4872786;28;92701;-75
2023/07/11 07:49:52;;;;;;;6.53;1.92;;;25.50;61.10;;;;;;4869005;28;93411;-76
2023/07/11 07:52:18;;;;;;;8.05;1.67;;;25.60;61.30;;;;;;4874152;28;92857;-75
2023/07/11 07:54:43;;;;;;;5.55;1.40;;;25.70;61.20;;;;;;4873369;28;94581;-76
2023/07/11 07:57:09;;;;;;;3.97;1.60;;;25.80;63.60;;;;;;4870229;28;94030;-76
2023/07/11 07:59:34;;;;;;;6.82;2.00;;;25.90;61.90;;;;;;4868026;28;93632;-76
2023/07/11 08:02:00;;;;;;;5.40;1.52;;;26.10;60.50;;;;;;4867272;28;92819;-75
2023/07/11 08:04:25;;;;;;;7.55;1.45;;;26.20;59.50;;;;;;4868848;28;93606;-75
2023/07/11 08:06:51;;;;;;;6.30;1.23;;;26.30;57.90;;;;;;4868954;28;93403;-75
2023/07/11 08:09:18;;;;;;;9.80;1.73;;;26.40;57.50;;;;;;4867821;28;92724;-75
2023/07/11 08:11:44;;;;;;;7.85;1.77;;;26.50;57.70;;;;;;4867576;28;92286;-75
2023/07/11 08:14:09;;;;;;;3.83;1.65;;;26.60;55.50;;;;;;4870558;28;93550;-76
2023/07/11 08:16:37;;;;;;;4.65;1.50;;;26.70;55.20;;;;;;4856042;28;96998;-75
2023/07/11 08:19:04;;;;;;;5.63;1.45;;;26.70;55.80;;;;;;4872630;28;93541;-76
2023/07/11 08:21:30;;;;;;;8.00;1.63;;;26.70;54.60;;;;;;4874115;28;96666;-77
2023/07/11 08:23:56;;;;;;;8.07;1.60;;;26.80;55.70;;;;;;4873514;28;93608;-76
2023/07/11 08:26:22;;;;;;;8.13;1.33;;;26.80;55.30;;;;;;4872774;28;93336;-76
2023/07/11 08:28:52;;;;;;;7.10;1.80;;;26.80;55.40;;;;;;4873362;28;92933;-76
2023/07/11 08:31:17;;;;;;;3.65;1.60;;;26.70;56.00;;;;;;4875594;28;92676;-77
2023/07/11 08:33:43;;;;;;;4.97;1.38;;;26.80;55.90;;;;;;4872847;28;93852;-77
2023/07/11 08:36:09;;;;;;;4.80;1.38;;;26.80;55.70;;;;;;4875722;28;93260;-76
2023/07/11 08:38:35;;;;;;;3.65;1.42;;;27.00;55.90;;;;;;4861110;28;93081;-76
2023/07/11 08:41:47;;;;;;;5.13;1.55;;;27.00;52.50;;;;;;4876340;28;92782;-75
2023/07/11 08:44:30;;;;;;;6.00;1.73;;;27.10;53.90;;;;;;4861276;28;95516;-76
2023/07/11 08:47:05;;;;;;;4.65;1.10;;;27.20;53.60;;;;;;4877482;28;93863;-77
2023/07/11 08:49:54;;;;;;;7.53;1.52;;;27.40;52.70;;;;;;4878869;28;92653;-77
2023/07/11 08:52:21;;;;;;;6.03;1.40;;;27.50;53.10;;;;;;4876536;28;92838;-77
2023/07/11 08:55:09;;;;;;;13.73;1.92;;;27.50;51.90;;;;;;4876760;28;93668;-76
2023/07/11 08:57:40;;;;;;;6.72;1.85;;;27.70;52.40;;;;;;4876944;28;93489;-77
2023/07/11 09:00:19;;;;;;;4.05;1.25;;;27.90;51.60;;;;;;4876439;28;92609;-78
2023/07/11 09:02:54;;;;;;;3.78;1.27;;;28.00;53.70;;;;;;4877918;28;91645;-77
2023/07/11 09:05:42;;;;;;;4.93;1.45;;;28.10;51.00;;;;;;4875229;28;100218;-76
2023/07/11 09:08:15;;;;;;;8.52;1.90;;;28.20;50.80;;;;;;4876294;28;92664;-77
2023/07/11 09:10:50;;;;;;;5.75;1.80;;;28.40;52.80;;;;;;4876809;28;93552;-77
2023/07/11 09:13:44;;;;;;;4.63;1.38;;;28.60;49.90;;;;;;4858839;28;92876;-77
2023/07/11 09:16:35;;;;;;;5.93;1.83;;;28.50;50.40;;;;;;4874978;28;98931;-78
2023/07/11 09:19:31;;;;;;;7.70;1.90;;;28.60;50.80;;;;;;4877008;28;97725;-77
2023/07/11 09:22:03;;;;;;;7.25;1.70;;;28.70;49.70;;;;;;4876795;28;92547;-77
2023/07/11 09:24:36;;;;;;;7.20;1.70;;;28.80;50.50;;;;;;4876060;28;93070;-77
2023/07/11 09:27:13;;;;;;;;;;;28.90;49.70;;;;;;4876340;28;93636;-76
2023/07/11 09:29:45;;;;;;;7.18;1.85;;;29.00;50.70;;;;;;4876011;28;96326;-77
2023/07/11 09:32:13;;;;;;;3.47;1.40;;;29.00;47.30;;;;;;4876774;28;92360;-77
2023/07/11 09:34:43;;;;;;;6.22;1.60;;;29.00;50.10;;;;;;4875696;28;92817;-77
2023/07/11 09:37:32;;;;;;;7.50;1.42;;;29.20;49.80;;;;;;4875142;28;95942;-77
2023/07/11 09:40:44;;;;;;;4.57;1.50;;;29.40;49.80;;;;;;4875071;28;94987;-77
2023/07/11 09:43:09;;;;;;;4.07;1.38;;;29.60;48.10;;;;;;4790628;29;92766;-77
2023/07/11 09:45:37;;;;;;;8.30;1.42;;;29.70;46.40;;;;;;4790416;29;92667;-77
2023/07/11 09:48:10;;;;;;;11.88;1.90;;;29.70;48.10;;;;;;4818061;28;97794;-78
2023/07/11 09:50:42;;;;;;;7.30;1.95;;;29.90;46.60;;;;;;4867110;28;94791;-76
2023/07/11 09:53:19;;;;;;;5.90;1.00;;;30.00;45.70;;;;;;4876762;28;92611;-77
2023/07/11 09:55:45;;;;;;;5.18;1.65;;;30.00;47.20;;;;;;4877687;28;91847;-77
2023/07/11 09:58:17;;;;;;;7.97;2.17;;;30.10;46.40;;;;;;4877414;28;93607;-76
2023/07/11 10:00:46;;;;;;;26.52;2.25;;;30.10;47.50;;;;;;4875517;28;93533;-77
2023/07/11 10:03:17;;;;;;;4.53;1.33;;;30.20;46.10;;;;;;4875281;28;93578;-77
2023/07/11 10:05:45;;;;;;;2.53;1.27;;;30.20;45.50;;;;;;4875447;28;92470;-77
2023/07/11 10:08:19;;;;;;;7.72;1.75;;;30.40;45.90;;;;;;4874442;28;94348;-77
2023/07/11 10:10:53;;;;;;;12.90;1.50;;;30.30;46.40;;;;;;4875962;28;94076;-77
2023/07/11 10:13:19;;;;;;;10.30;1.35;;;30.50;46.00;;;;;;4877712;28;92662;-77
2023/07/11 10:15:52;;;;;;;4.68;1.60;;;30.60;46.40;;;;;;4875352;28;92508;-77
2023/07/11 10:18:27;;;;;;;5.93;1.80;;;30.70;45.70;;;;;;4875079;28;93279;-77
2023/07/11 10:21:04;;;;;;;12.20;1.70;;;30.80;44.80;;;;;;4876713;28;93032;-77
2023/07/11 10:23:30;;;;;;;4.78;1.52;;;30.90;45.30;;;;;;4859663;28;95537;-77
2023/07/11 10:26:22;;;;;;;6.00;1.50;;;31.00;47.20;;;;;;4877805;28;92628;-78
2023/07/11 10:29:01;;;;;;;5.75;1.90;;;31.00;46.00;;;;;;4875971;28;94685;-77
2023/07/11 10:31:32;;;;;;;4.28;1.70;;;31.00;46.40;;;;;;4876910;28;94873;-77
2023/07/11 10:34:04;;;;;;;4.93;1.80;;;31.10;47.60;;;;;;4876497;28;92681;-76
2023/07/11 10:36:47;;;;;;;6.13;1.63;;;31.30;46.80;;;;;;4876197;28;92722;-77
2023/07/11 10:39:19;;;;;;;5.30;1.83;;;31.40;45.50;;;;;;4875487;28;94213;-77
2023/07/11 10:41:57;;;;;;;4.68;1.60;;;31.50;45.30;;;;;;4874804;28;93433;-78
2023/07/11 10:44:30;;;;;;;5.60;1.70;;;31.60;46.60;;;;;;4875154;28;92648;-78
2023/07/11 10:46:56;;;;;;;5.77;1.50;;;31.70;46.10;;;;;;4876222;28;92076;-78
2023/07/11 10:49:28;;;;;;;4.07;1.63;;;31.70;44.80;;;;;;4876998;28;93402;-78
2023/07/11 10:51:53;;;;;;;6.03;1.58;;;31.70;45.20;;;;;;4876215;28;92997;-78
2023/07/11 10:54:36;;;;;;;2.63;1.30;;;31.70;44.20;;;;;;4874949;28;93757;-78
2023/07/11 10:57:15;;;;;;;3.30;1.43;;;31.70;44.90;;;;;;4875335;28;92667;-78
2023/07/11 10:59:41;;;;;;;8.18;1.75;;;31.80;42.80;;;;;;4876998;28;93656;-78
2023/07/11 11:02:21;;;;;;;4.53;1.67;;;31.80;41.90;;;;;;4874980;28;93756;-77
2023/07/11 11:05:20;;;;;;;7.90;1.70;;;31.80;42.30;;;;;;4876123;28;92257;-78
2023/07/11 11:07:56;;;;;;;3.95;1.63;;;31.90;40.70;;;;;;4868961;28;92860;-78
2023/07/11 11:10:40;;;;;;;5.88;1.33;;;31.90;42.10;;;;;;4876342;28;93436;-77
2023/07/11 11:13:34;;;;;;;3.65;1.67;;;32.00;41.80;;;;;;4874002;28;96985;-77
2023/07/11 11:16:16;;;;;;;4.28;1.33;;;32.20;43.20;;;;;;4873008;28;92851;-76
2023/07/11 11:19:34;;;;;;;3.92;1.50;;;32.30;41.20;;;;;;4874213;28;92516;-76
2023/07/11 11:22:11;;;;;;;3.83;1.83;;;32.20;40.50;;;;;;4873503;28;94697;-77
2023/07/11 11:24:59;;;;;;;3.67;1.65;;;32.20;41.80;;;;;;4873906;28;94214;-76
2023/07/11 11:27:24;;;;;;;5.35;1.67;;;32.10;42.00;;;;;;4874374;28;92495;-77
2023/07/11 11:30:19;;;;;;;3.70;1.63;;;32.10;42.10;;;;;;4874488;28;92743;-77
2023/07/11 11:33:08;;;;;;;3.50;1.45;;;32.10;41.20;;;;;;4867686;28;93199;-77
2023/07/11 11:35:51;;;;;;;5.18;1.83;;;32.10;42.70;;;;;;4872358;28;94276;-76
2023/07/11 11:38:38;;;;;;;8.10;2.13;;;32.20;41.80;;;;;;4874373;28;92204;-77
2023/07/11 11:41:12;;;;;;;5.97;1.85;;;32.30;40.80;;;;;;4875215;28;91876;-77
2023/07/11 11:43:39;;;;;;;7.28;1.50;;;32.40;41.70;;;;;;4873295;28;93452;-77
2023/07/11 11:46:07;;;;;;;4.13;1.52;;;32.50;41.70;;;;;;4873392;28;92851;-76
2023/07/11 11:48:38;;;;;;;3.78;1.70;;;32.50;40.40;;;;;;4872930;28;93435;-87
2023/07/11 11:51:07;;;;;;;5.63;1.88;;;32.40;41.00;;;;;;4873598;28;92647;-80
2023/07/11 11:53:46;;;;;;;5.60;1.40;;;32.50;43.30;;;;;;4873844;28;93681;-80
2023/07/11 11:56:19;;;;;;;5.45;1.40;;;32.60;42.00;;;;;;4871236;28;96372;-80
2023/07/11 11:58:59;;;;;;;3.13;1.33;;;32.70;42.60;;;;;;4873127;28;92872;-80
2023/07/11 12:01:36;;;;;;;6.20;1.55;;;32.90;40.80;;;;;;4865124;28;92937;-80
2023/07/11 12:04:33;;;;;;;5.18;1.63;;;33.00;43.10;;;;;;4873554;28;98263;-80
2023/07/11 12:07:02;;;;;;;4.55;1.42;;;33.20;42.60;;;;;;4857380;28;95129;-80
2023/07/11 12:09:53;;;;;;;5.22;1.55;;;33.20;41.40;;;;;;4873890;28;92627;-79
2023/07/11 12:12:19;;;;;;;3.92;1.30;;;33.30;39.40;;;;;;4854030;28;92899;-79
2023/07/11 12:14:56;;;;;;;5.03;1.88;;;33.50;42.10;;;;;;4873608;28;94764;-82
2023/07/11 12:17:34;;;;;;;3.38;1.73;;;33.50;39.50;;;;;;4878133;28;93876;-83
2023/07/11 12:20:00;;;;;;;4.40;1.65;;;33.50;39.70;;;;;;4874209;28;93499;-80
2023/07/11 12:22:46;;;;;;;4.68;1.70;;;33.50;39.10;;;;;;4860606;28;92837;-79
2023/07/11 12:25:12;;;;;;;3.15;1.55;;;33.50;39.10;;;;;;4855064;28;93417;-80
2023/07/11 12:27:37;;;;;;;2.28;1.40;;;33.70;40.50;;;;;;4877321;28;94049;-78
2023/07/11 12:30:26;;;;;;;3.72;1.70;;;33.70;39.80;;;;;;4859617;28;92900;-79
2023/07/11 12:32:54;;;;;;;5.57;1.30;;;33.70;40.20;;;;;;4876178;28;91842;-80
2023/07/11 12:35:25;;;;;;;5.05;2.08;;;33.80;38.70;;;;;;4877534;28;96534;-78
2023/07/11 12:38:05;;;;;;;2.97;1.40;;;33.80;39.00;;;;;;4875443;28;96514;-78
2023/07/11 12:41:01;;;;;;;7.70;1.88;;;33.80;40.10;;;;;;4876089;28;94209;-79
2023/07/11 12:43:30;;;;;;;3.72;1.50;;;33.80;39.30;;;;;;4874243;28;92914;-81
2023/07/11 12:45:59;;;;;;;5.05;1.60;;;33.80;39.80;;;;;;4859406;28;97651;-81
2023/07/11 12:48:31;;;;;;;5.15;1.65;;;33.80;38.50;;;;;;4858543;28;98060;-80
2023/07/11 12:51:01;;;;;;;6.07;1.73;;;33.80;40.50;;;;;;4876363;28;92930;-80
2023/07/11 12:53:27;;;;;;;4.22;1.90;;;33.90;40.40;;;;;;4874965;28;92943;-80
2023/07/11 12:55:54;;;;;;;3.55;1.38;;;34.00;40.30;;;;;;4875814;28;93265;-79
2023/07/11 12:58:48;;;;;;;3.53;1.60;;;34.10;39.20;;;;;;4873874;28;94318;-79
2023/07/11 13:01:15;;;;;;;;;;;34.20;40.20;;;;;;4874872;28;92531;-78